CheckWX is a tool to help pilots better visualize weather data.  It is not intended as a substitute for an official pre-flight weather briefing.

16:25:54 UTC

KCIN METAR
Arthur N Neu Airport
Carroll, Iowa, USA
Current

31 mins ago

KCIN 191555Z AUTO 28012KT 10SM CLR 07/03 A2987 RMK AO2
Observed
Nov-19 @ 15:55 UTC
Wind
  • 280° at 12 KTS
Visibility
10 SM
Flight Rules
VFR
Cloud Levels
  • Clear skies
Temperature
C / 45°F
Dewpoint
C / 37°F
Humidity
76%
Altimeter
29.87" Hg
Pressure
1011.52 hPa
Previous

51 mins ago

KCIN 191535Z AUTO 29011KT 10SM CLR 07/03 A2986 RMK AO2
Observed
Nov-19 @ 15:35 UTC
Wind
  • 290° at 11 KTS
Visibility
10 SM
Flight Rules
VFR
Cloud Levels
  • Clear skies
Temperature
C / 45°F
Dewpoint
C / 37°F
Humidity
76%
Altimeter
29.86" Hg
Pressure
1011.22 hPa
Previous

1 hour ago

KCIN 191515Z AUTO 28011KT 10SM CLR 06/03 A2986 RMK AO2
Observed
Nov-19 @ 15:15 UTC
Wind
  • 280° at 11 KTS
Visibility
10 SM
Flight Rules
VFR
Cloud Levels
  • Clear skies
Temperature
C / 43°F
Dewpoint
C / 37°F
Humidity
81%
Altimeter
29.86" Hg
Pressure
1011.22 hPa